createdAt,value
2019-05-21T00:01:48.571Z,13.10
2019-05-21T00:04:27.939Z,13.10
2019-05-21T00:06:47.809Z,13.10
2019-05-21T00:09:16.160Z,13.00
2019-05-21T00:11:44.364Z,13.20
2019-05-21T00:14:18.488Z,13.20
2019-05-21T00:16:48.320Z,13.30
2019-05-21T00:19:16.554Z,13.20
2019-05-21T00:21:44.831Z,13.40
2019-05-21T00:24:12.914Z,13.00
2019-05-21T00:26:41.444Z,12.90
2019-05-21T00:30:05.084Z,12.90
2019-05-21T00:33:28.258Z,13.00
2019-05-21T00:36:53.966Z,13.00
2019-05-21T00:40:17.297Z,12.80
2019-05-21T00:42:46.224Z,13.00
2019-05-21T00:45:16.749Z,13.10
2019-05-21T00:47:44.846Z,13.00
2019-05-21T00:50:13.460Z,13.20
2019-05-21T00:52:41.811Z,13.20
2019-05-21T00:55:10.117Z,13.10
2019-05-21T00:57:38.748Z,13.10
2019-05-21T01:00:07.263Z,13.20
2019-05-21T01:02:37.712Z,13.60
2019-05-21T01:05:05.815Z,13.20
2019-05-21T01:07:34.563Z,13.50
2019-05-21T01:10:02.993Z,12.80
2019-05-21T01:12:31.288Z,13.20
2019-05-21T01:14:59.419Z,13.40
2019-05-21T01:17:27.636Z,13.40
2019-05-21T01:19:56.441Z,13.50
2019-05-21T01:22:24.501Z,13.40
2019-05-21T01:24:52.457Z,13.60
2019-05-21T01:27:20.870Z,13.30
2019-05-21T01:29:48.946Z,13.90
2019-05-21T01:32:16.884Z,13.60
2019-05-21T01:34:45.254Z,14.00
2019-05-21T01:37:13.329Z,13.80
2019-05-21T01:39:41.484Z,13.70
2019-05-21T01:42:09.608Z,13.80
2019-05-21T01:44:38.224Z,13.80
2019-05-21T01:47:06.429Z,13.70
2019-05-21T01:49:34.645Z,13.20
2019-05-21T01:52:03.998Z,13.30
2019-05-21T01:54:31.981Z,13.40
2019-05-21T01:57:00.091Z,13.40
2019-05-21T01:59:28.287Z,13.50
2019-05-21T02:01:56.396Z,13.50
2019-05-21T02:04:24.464Z,13.20
2019-05-21T02:06:52.605Z,13.10
2019-05-21T02:09:20.583Z,13.30
2019-05-21T02:11:48.674Z,13.40
2019-05-21T02:14:16.641Z,13.50
2019-05-21T02:16:44.875Z,13.40
2019-05-21T02:19:17.243Z,13.60
2019-05-21T02:21:45.422Z,13.40
2019-05-21T02:24:14.521Z,13.50
2019-05-21T02:26:42.486Z,13.70
2019-05-21T02:29:10.481Z,13.70
2019-05-21T02:31:39.145Z,13.30
2019-05-21T02:34:07.086Z,13.50
2019-05-21T02:36:34.950Z,13.80
2019-05-21T02:39:05.507Z,13.30
2019-05-21T02:41:33.416Z,13.60
2019-05-21T02:44:01.451Z,13.20
2019-05-21T02:46:29.363Z,13.50
2019-05-21T02:49:02.982Z,13.40
2019-05-21T02:51:31.114Z,13.20
2019-05-21T02:53:59.039Z,13.20
2019-05-21T02:56:27.076Z,13.20
2019-05-21T02:58:55.153Z,13.20
2019-05-21T03:01:40.830Z,13.20
2019-05-21T03:04:09.711Z,13.40
2019-05-21T03:06:37.823Z,13.40
2019-05-21T03:09:06.414Z,13.50
2019-05-21T03:11:34.273Z,13.50
2019-05-21T03:14:02.148Z,13.20
2019-05-21T03:16:31.456Z,13.00
2019-05-21T03:18:59.615Z,13.10
2019-05-21T03:21:29.007Z,13.10
2019-05-21T03:23:56.891Z,12.90
2019-05-21T03:26:24.890Z,13.50
2019-05-21T03:28:52.927Z,13.30
2019-05-21T03:31:20.823Z,13.20
2019-05-21T03:33:48.939Z,13.20
2019-05-21T03:36:32.831Z,13.20
2019-05-21T03:38:48.688Z,13.00
2019-05-21T03:41:17.807Z,13.00
2019-05-21T03:43:45.678Z,13.40
2019-05-21T03:46:13.738Z,13.40
2019-05-21T03:48:41.844Z,12.90
2019-05-21T03:51:11.504Z,12.70
2019-05-21T03:53:39.636Z,13.00
2019-05-21T03:56:07.504Z,12.60
2019-05-21T03:58:35.503Z,12.90
2019-05-21T04:01:03.362Z,12.60
2019-05-21T04:03:32.223Z,12.60
2019-05-21T04:06:01.497Z,12.70
2019-05-21T04:08:29.383Z,12.80
2019-05-21T04:10:57.621Z,12.80
2019-05-21T04:13:25.614Z,12.40
2019-05-21T04:16:16.059Z,12.70
2019-05-21T04:19:00.100Z,12.70
2019-05-21T04:21:28.139Z,12.60
2019-05-21T04:23:56.060Z,12.80
2019-05-21T04:26:24.170Z,12.90
2019-05-21T04:28:52.211Z,12.40
2019-05-21T04:31:20.099Z,12.70
2019-05-21T04:33:47.950Z,13.10
2019-05-21T04:36:15.943Z,12.60
2019-05-21T04:38:43.818Z,13.20
2019-05-21T04:41:11.699Z,12.70
2019-05-21T04:43:39.671Z,12.70
2019-05-21T04:46:07.510Z,12.80
2019-05-21T04:48:35.416Z,12.90
2019-05-21T04:51:03.651Z,12.80
2019-05-21T04:53:33.557Z,12.70
2019-05-21T04:56:01.581Z,12.50
2019-05-21T04:58:29.486Z,13.30
2019-05-21T05:00:57.519Z,12.70
2019-05-21T05:03:25.509Z,12.80
2019-05-21T05:05:53.453Z,12.80
2019-05-21T05:08:22.448Z,13.00
2019-05-21T05:10:50.502Z,13.20
2019-05-21T05:13:18.443Z,12.60
2019-05-21T05:15:46.517Z,12.80
2019-05-21T05:18:14.523Z,12.60
2019-05-21T05:20:42.805Z,12.70
2019-05-21T05:23:10.697Z,12.60
2019-05-21T05:25:39.677Z,13.00
2019-05-21T05:28:07.637Z,12.70
2019-05-21T05:30:35.518Z,13.00
2019-05-21T05:33:03.603Z,13.20
2019-05-21T05:35:31.457Z,12.90
2019-05-21T05:37:59.377Z,13.40
2019-05-21T05:40:27.755Z,12.90
2019-05-21T05:42:55.618Z,13.10
2019-05-21T05:45:23.526Z,13.10
2019-05-21T05:47:51.656Z,13.30
2019-05-21T05:50:22.381Z,12.80
2019-05-21T05:52:50.260Z,13.00
2019-05-21T05:55:18.150Z,13.20
2019-05-21T05:57:46.201Z,13.20
2019-05-21T06:00:16.760Z,13.20
2019-05-21T06:02:44.787Z,13.00
2019-05-21T06:05:14.426Z,13.10
2019-05-21T06:07:42.300Z,13.10
2019-05-21T06:10:10.778Z,13.20
2019-05-21T06:12:38.778Z,13.20
2019-05-21T06:15:07.121Z,13.30
2019-05-21T06:17:34.964Z,13.20
2019-05-21T06:20:04.678Z,13.40
2019-05-21T06:22:32.534Z,13.20
2019-05-21T06:25:00.265Z,13.20
2019-05-21T06:27:29.050Z,13.20
2019-05-21T06:29:56.752Z,13.20
2019-05-21T06:32:24.454Z,13.30
2019-05-21T06:34:52.354Z,13.30
2019-05-21T06:37:20.058Z,13.10
2019-05-21T06:39:48.015Z,13.20
2019-05-21T06:42:15.883Z,13.20
2019-05-21T06:44:43.613Z,13.30
2019-05-21T06:47:11.479Z,13.20
2019-05-21T06:49:39.485Z,13.50
2019-05-21T06:52:07.225Z,13.40
2019-05-21T06:54:35.093Z,13.70
2019-05-21T06:57:03.029Z,13.50
2019-05-21T06:59:30.871Z,13.30
2019-05-21T07:01:58.940Z,13.10
2019-05-21T07:04:26.654Z,13.00
2019-05-21T07:06:54.425Z,13.30
2019-05-21T07:09:22.388Z,12.80
2019-05-21T07:11:50.318Z,13.10
2019-05-21T07:14:18.062Z,12.70
2019-05-21T07:16:47.174Z,12.70
2019-05-21T07:19:14.911Z,12.60
2019-05-21T07:21:42.627Z,12.80
2019-05-21T07:24:14.928Z,13.20
2019-05-21T07:26:42.723Z,12.70
2019-05-21T07:29:10.539Z,12.60
2019-05-21T07:31:38.377Z,12.70
2019-05-21T07:34:06.161Z,12.90
2019-05-21T07:36:34.163Z,12.70
2019-05-21T07:39:02.114Z,13.10
2019-05-21T07:41:30.075Z,13.20
2019-05-21T07:43:57.972Z,13.10
2019-05-21T07:46:25.707Z,13.00
2019-05-21T07:48:53.526Z,13.40
2019-05-21T07:51:21.488Z,13.20
2019-05-21T07:53:49.278Z,13.10
2019-05-21T07:56:17.278Z,13.10
2019-05-21T07:58:45.216Z,13.10
2019-05-21T08:01:14.194Z,12.90
2019-05-21T08:03:41.939Z,13.00
2019-05-21T08:06:09.834Z,12.90
2019-05-21T08:08:37.564Z,13.40
2019-05-21T08:11:09.733Z,13.30
2019-05-21T08:13:37.453Z,13.70
2019-05-21T08:16:05.265Z,13.50
2019-05-21T08:18:33.179Z,13.80
2019-05-21T08:21:00.904Z,13.50
2019-05-21T08:23:28.700Z,13.50
2019-05-21T08:25:56.582Z,13.50
2019-05-21T08:28:24.362Z,13.40
2019-05-21T08:30:53.011Z,13.70
2019-05-21T08:33:20.926Z,13.40
2019-05-21T08:35:48.668Z,13.50
2019-05-21T08:38:16.526Z,13.80
2019-05-21T08:40:44.246Z,13.50
2019-05-21T08:43:12.108Z,13.50
2019-05-21T08:45:40.084Z,13.70
2019-05-21T08:48:08.324Z,13.60
2019-05-21T08:50:36.222Z,13.50
2019-05-21T08:53:05.985Z,13.50
2019-05-21T08:55:34.006Z,13.80
2019-05-21T08:58:07.782Z,14.40
2019-05-21T09:00:38.048Z,14.20
2019-05-21T09:03:05.920Z,14.50
2019-05-21T09:05:33.730Z,15.30
2019-05-21T09:08:01.665Z,14.50
2019-05-21T09:10:29.376Z,14.90
2019-05-21T09:12:57.114Z,14.80
2019-05-21T09:15:24.994Z,14.60
2019-05-21T09:17:52.707Z,14.30
2019-05-21T09:20:20.833Z,14.20
2019-05-21T09:22:48.543Z,14.10
2019-05-21T09:25:19.382Z,14.20
2019-05-21T09:27:50.109Z,14.10
2019-05-21T09:30:19.527Z,13.90
2019-05-21T09:32:50.115Z,13.90
2019-05-21T09:35:18.683Z,14.40
2019-05-21T09:37:46.541Z,14.70
2019-05-21T09:40:15.406Z,14.30
2019-05-21T09:42:45.494Z,14.10
2019-05-21T09:45:14.114Z,13.90
2019-05-21T09:47:41.857Z,14.00
2019-05-21T09:50:10.645Z,14.70
2019-05-21T09:52:38.376Z,14.50
2019-05-21T09:55:07.141Z,14.80
2019-05-21T09:58:06.854Z,14.90
2019-05-21T10:00:53.279Z,14.60
2019-05-21T10:03:23.146Z,14.90
2019-05-21T10:05:51.215Z,15.00
2019-05-21T10:08:18.944Z,15.00
2019-05-21T10:10:46.899Z,15.20
2019-05-21T10:13:15.927Z,15.30
2019-05-21T10:15:43.687Z,15.00
2019-05-21T10:18:11.559Z,15.00
2019-05-21T10:20:40.761Z,14.80
2019-05-21T10:23:08.521Z,14.40
2019-05-21T10:25:37.715Z,15.20
2019-05-21T10:28:06.836Z,15.20
2019-05-21T10:30:43.192Z,15.30
2019-05-21T10:33:10.977Z,15.50
2019-05-21T10:35:38.696Z,15.90
2019-05-21T10:38:06.638Z,15.70
2019-05-21T10:40:34.378Z,16.20
2019-05-21T10:43:02.327Z,16.20
2019-05-21T10:45:30.208Z,16.30
2019-05-21T10:47:58.054Z,17.00
2019-05-21T10:50:25.776Z,17.50
2019-05-21T10:52:53.982Z,18.30
2019-05-21T10:55:21.961Z,18.30
2019-05-21T10:57:49.704Z,18.30
2019-05-21T11:00:23.009Z,18.90
2019-05-21T11:02:58.774Z,18.20
2019-05-21T11:05:40.072Z,18.80
2019-05-21T11:08:24.778Z,18.80
2019-05-21T11:10:38.876Z,18.40
2019-05-21T11:13:06.816Z,18.30
2019-05-21T11:15:34.695Z,18.50
2019-05-21T11:18:10.632Z,18.70
2019-05-21T11:20:32.210Z,18.90
2019-05-21T11:22:59.968Z,19.30
2019-05-21T11:25:28.183Z,19.50
2019-05-21T11:27:55.886Z,19.60
2019-05-21T11:30:23.771Z,19.40
2019-05-21T11:32:52.032Z,18.90
2019-05-21T11:35:20.371Z,19.40
2019-05-21T11:37:48.380Z,19.60
2019-05-21T11:40:16.921Z,19.70
2019-05-21T11:42:44.622Z,19.70
2019-05-21T11:45:12.635Z,19.40
2019-05-21T11:47:40.495Z,19.70
2019-05-21T11:50:10.508Z,19.70
2019-05-21T11:52:39.246Z,18.80
2019-05-21T11:55:07.698Z,19.00
2019-05-21T11:57:35.435Z,18.80
2019-05-21T12:00:05.090Z,19.40
2019-05-21T12:02:33.144Z,19.40
2019-05-21T12:05:00.856Z,18.80
2019-05-21T12:07:28.719Z,18.80
2019-05-21T12:09:56.488Z,18.80
2019-05-21T12:12:24.289Z,18.80
2019-05-21T12:14:52.136Z,19.30
2019-05-21T12:17:19.855Z,19.30
2019-05-21T12:19:47.589Z,19.30
2019-05-21T12:22:15.468Z,19.70
2019-05-21T12:24:43.150Z,19.00
2019-05-21T12:27:10.997Z,19.50
2019-05-21T12:29:39.017Z,18.80
2019-05-21T12:32:06.831Z,18.90
2019-05-21T12:34:34.684Z,19.00
2019-05-21T12:37:02.431Z,18.90
2019-05-21T12:39:30.297Z,18.80
2019-05-21T12:41:58.050Z,18.70
2019-05-21T12:44:27.013Z,18.50
2019-05-21T12:46:55.016Z,18.60
2019-05-21T12:49:22.758Z,18.30
2019-05-21T12:51:52.035Z,18.40
2019-05-21T12:54:20.309Z,18.20
2019-05-21T12:56:47.988Z,18.70
2019-05-21T12:59:15.717Z,18.80
2019-05-21T13:01:43.598Z,19.00
2019-05-21T13:04:11.895Z,19.60
2019-05-21T13:06:39.966Z,19.60
2019-05-21T13:09:08.581Z,19.00
2019-05-21T13:11:36.558Z,18.80
2019-05-21T13:14:04.741Z,19.00
2019-05-21T13:16:32.469Z,18.90
2019-05-21T13:19:00.221Z,19.00
2019-05-21T13:21:28.696Z,18.80
2019-05-21T13:23:56.488Z,19.00
2019-05-21T13:26:24.245Z,19.00
2019-05-21T13:28:52.086Z,19.40
2019-05-21T13:31:20.045Z,19.30
2019-05-21T13:33:47.989Z,19.50
2019-05-21T13:36:15.865Z,18.90
2019-05-21T13:38:43.578Z,19.30
2019-05-21T13:41:11.930Z,19.40
2019-05-21T13:43:39.783Z,18.90
2019-05-21T13:46:07.657Z,18.80
2019-05-21T13:48:35.376Z,18.80
2019-05-21T13:51:04.278Z,18.80
2019-05-21T13:53:32.234Z,18.80
2019-05-21T13:55:59.971Z,18.60
2019-05-21T13:58:27.844Z,18.90
2019-05-21T14:00:56.293Z,18.60
2019-05-21T14:03:24.150Z,18.20
2019-05-21T14:05:52.037Z,18.10
2019-05-21T14:08:20.033Z,18.10
2019-05-21T14:10:47.819Z,18.50
2019-05-21T14:13:15.690Z,18.50
2019-05-21T14:15:43.822Z,18.80
2019-05-21T14:18:11.585Z,18.80
2019-05-21T14:20:39.370Z,18.80
2019-05-21T14:23:07.228Z,18.70
2019-05-21T14:25:35.237Z,18.70
2019-05-21T14:28:04.888Z,18.70
2019-05-21T14:30:32.874Z,18.70
2019-05-21T14:33:00.677Z,18.30
2019-05-21T14:35:28.450Z,18.60
2019-05-21T14:37:56.404Z,18.90
2019-05-21T14:40:31.530Z,19.30
2019-05-21T14:42:59.902Z,19.40
2019-05-21T14:45:28.799Z,19.50
2019-05-21T14:47:54.267Z,19.30
2019-05-21T14:50:22.180Z,19.50
2019-05-21T14:52:52.248Z,19.80
2019-05-21T14:55:19.966Z,19.60
2019-05-21T14:57:48.601Z,19.50
2019-05-21T15:00:22.863Z,18.80
2019-05-21T15:02:50.782Z,18.90
2019-05-21T15:05:18.515Z,18.90
2019-05-21T15:07:49.690Z,18.20
2019-05-21T15:10:16.292Z,18.30
2019-05-21T15:12:44.238Z,18.10
2019-05-21T15:15:12.149Z,18.20
2019-05-21T15:17:39.891Z,18.20
2019-05-21T15:20:13.198Z,17.40
2019-05-21T15:22:41.055Z,17.70
2019-05-21T15:25:08.992Z,17.40
2019-05-21T15:27:36.846Z,17.40
2019-05-21T15:30:05.341Z,17.50
2019-05-21T15:32:33.236Z,17.50
2019-05-21T15:35:01.124Z,17.70
2019-05-21T15:37:28.923Z,17.30
2019-05-21T15:39:56.927Z,17.60
2019-05-21T15:42:24.762Z,17.50
2019-05-21T15:44:52.657Z,17.00
2019-05-21T15:47:23.824Z,17.10
2019-05-21T15:49:51.742Z,17.50
2019-05-21T15:52:19.564Z,17.30
2019-05-21T15:54:47.416Z,16.90
2019-05-21T15:57:15.227Z,16.80
2019-05-21T15:59:43.034Z,16.30
2019-05-21T16:02:11.339Z,16.80
2019-05-21T16:04:41.237Z,16.80
2019-05-21T16:07:09.267Z,16.70
2019-05-21T16:09:37.175Z,16.90
2019-05-21T16:12:04.923Z,17.00
2019-05-21T16:14:32.693Z,16.80
2019-05-21T16:17:00.632Z,16.80
2019-05-21T16:19:28.399Z,16.80
2019-05-21T16:21:59.380Z,16.30
2019-05-21T16:24:27.247Z,16.90
2019-05-21T16:26:55.169Z,17.00
2019-05-21T16:29:22.900Z,16.60
2019-05-21T16:31:50.747Z,16.80
2019-05-21T16:34:18.805Z,16.40
2019-05-21T16:36:46.632Z,16.20
2019-05-21T16:39:16.407Z,16.40
2019-05-21T16:41:45.517Z,16.20
2019-05-21T16:44:13.596Z,16.20
2019-05-21T16:46:42.696Z,16.20
2019-05-21T16:49:10.748Z,16.10
2019-05-21T16:51:38.690Z,16.20
2019-05-21T16:54:06.434Z,16.80
2019-05-21T16:56:34.173Z,17.00
2019-05-21T16:59:02.136Z,17.00
2019-05-21T17:01:30.887Z,16.70
2019-05-21T17:04:00.200Z,16.80
2019-05-21T17:06:28.440Z,16.30
2019-05-21T17:08:57.679Z,16.90
2019-05-21T17:11:25.514Z,16.40
2019-05-21T17:13:55.175Z,16.20
2019-05-21T17:16:23.095Z,16.40
2019-05-21T17:18:50.821Z,17.00
2019-05-21T17:21:18.692Z,16.80
2019-05-21T17:23:46.413Z,16.40
2019-05-21T17:26:14.219Z,16.20
2019-05-21T17:28:42.122Z,16.30
2019-05-21T17:31:10.151Z,15.90
2019-05-21T17:33:37.948Z,15.70
2019-05-21T17:36:05.905Z,15.70
2019-05-21T17:38:33.881Z,15.70
2019-05-21T17:41:01.754Z,15.80
2019-05-21T17:43:29.538Z,15.80
2019-05-21T17:45:57.502Z,15.80
2019-05-21T17:48:25.269Z,15.10
2019-05-21T17:50:53.202Z,15.00
2019-05-21T17:53:21.096Z,15.00
2019-05-21T17:55:48.994Z,15.20
2019-05-21T17:58:16.800Z,15.10
2019-05-21T18:00:51.797Z,15.20
2019-05-21T18:03:20.120Z,15.00
2019-05-21T18:05:49.016Z,15.00
2019-05-21T18:08:17.844Z,15.20
2019-05-21T18:10:45.987Z,15.20
2019-05-21T18:13:14.838Z,14.80
2019-05-21T18:15:42.584Z,14.70
2019-05-21T18:18:10.705Z,14.80
2019-05-21T18:20:39.302Z,14.60
2019-05-21T18:23:07.589Z,14.60
2019-05-21T18:25:35.845Z,15.10
2019-05-21T18:28:03.629Z,15.00
2019-05-21T18:30:31.427Z,15.00
2019-05-21T18:33:01.104Z,15.30
2019-05-21T18:35:28.917Z,15.20
2019-05-21T18:37:56.782Z,14.80
2019-05-21T18:40:24.524Z,14.50
2019-05-21T18:42:52.823Z,14.70
2019-05-21T18:45:24.637Z,14.70
2019-05-21T18:47:52.448Z,14.80
2019-05-21T18:50:34.888Z,14.80
2019-05-21T18:52:50.409Z,14.70
2019-05-21T18:55:18.313Z,14.40
2019-05-21T18:57:46.171Z,14.60
2019-05-21T19:00:17.691Z,14.50
2019-05-21T19:02:45.703Z,14.60
2019-05-21T19:05:13.685Z,14.90
2019-05-21T19:07:41.391Z,14.80
2019-05-21T19:10:09.848Z,14.80
2019-05-21T19:12:38.866Z,14.90
2019-05-21T19:15:08.002Z,15.00
2019-05-21T19:17:36.057Z,15.20
2019-05-21T19:20:05.312Z,15.20
2019-05-21T19:22:33.419Z,14.60
2019-05-21T19:25:01.132Z,14.60
2019-05-21T19:27:29.141Z,14.60
2019-05-21T19:29:57.113Z,14.70
2019-05-21T19:32:25.012Z,14.60
2019-05-21T19:34:52.811Z,14.90
2019-05-21T19:37:20.597Z,14.50
2019-05-21T19:39:48.614Z,14.80
2019-05-21T19:42:18.343Z,14.80
2019-05-21T19:44:46.065Z,14.40
2019-05-21T19:47:13.962Z,14.50
2019-05-21T19:49:41.719Z,14.70
2019-05-21T19:52:09.679Z,14.70
2019-05-21T19:57:12.406Z,14.50
2019-05-21T19:59:40.493Z,14.50
2019-05-21T20:02:10.302Z,14.90
2019-05-21T20:04:38.815Z,14.50
2019-05-21T20:07:09.429Z,14.80
2019-05-21T20:09:39.315Z,14.50
2019-05-21T20:12:09.147Z,14.60
2019-05-21T20:14:37.290Z,14.50
2019-05-21T20:17:07.351Z,14.40
2019-05-21T20:19:35.833Z,14.60
2019-05-21T20:22:06.393Z,14.60
2019-05-21T20:24:35.212Z,14.20
2019-05-21T20:27:03.881Z,14.00
2019-05-21T20:32:06.806Z,14.80
2019-05-21T20:34:34.609Z,14.50
2019-05-21T20:37:02.853Z,14.40
2019-05-21T20:39:32.718Z,14.00
2019-05-21T20:42:00.790Z,14.40
2019-05-21T20:44:28.590Z,14.30
2019-05-21T20:46:57.066Z,14.20
2019-05-21T20:49:25.794Z,14.30
2019-05-21T20:51:55.726Z,14.10
2019-05-21T20:54:26.196Z,13.90
2019-05-21T20:56:54.121Z,13.60
2019-05-21T20:59:22.026Z,13.80
2019-05-21T21:01:50.476Z,13.60
2019-05-21T21:04:19.930Z,13.60
2019-05-21T21:06:48.392Z,13.70
2019-05-21T21:09:16.827Z,13.60
2019-05-21T21:11:44.972Z,13.60
2019-05-21T21:14:17.837Z,13.80
2019-05-21T21:16:43.220Z,13.60
2019-05-21T21:19:11.270Z,13.80
2019-05-21T21:21:39.693Z,13.50
2019-05-21T21:24:08.196Z,13.50
2019-05-21T21:26:35.967Z,13.70
2019-05-21T21:29:05.115Z,13.80
2019-05-21T21:31:32.953Z,13.50
2019-05-21T21:34:00.892Z,13.60
2019-05-21T21:36:29.361Z,13.50
2019-05-21T21:38:59.189Z,13.80
2019-05-21T21:41:28.668Z,13.70
2019-05-21T21:44:00.186Z,13.70
2019-05-21T21:46:29.242Z,13.80
2019-05-21T21:48:58.148Z,14.30
2019-05-21T21:51:26.052Z,14.40
2019-05-21T21:53:54.592Z,14.20
2019-05-21T21:56:22.410Z,13.90
2019-05-21T21:58:50.248Z,14.20
2019-05-21T22:01:58.476Z,13.50
2019-05-21T22:04:35.657Z,13.70
2019-05-21T22:07:05.303Z,13.50
2019-05-21T22:09:38.156Z,13.70
2019-05-21T22:12:09.773Z,14.20
2019-05-21T22:14:50.297Z,13.60
2019-05-21T22:17:09.283Z,13.90
2019-05-21T22:19:38.655Z,13.60
2019-05-21T22:22:07.056Z,13.80
2019-05-21T22:24:34.888Z,13.60
2019-05-21T22:27:03.491Z,13.60
2019-05-21T22:29:32.323Z,13.70
2019-05-21T22:32:00.137Z,13.60
2019-05-21T22:34:27.984Z,14.00
2019-05-21T22:36:55.858Z,14.00
2019-05-21T22:39:26.342Z,14.20
2019-05-21T22:41:54.427Z,14.30
2019-05-21T22:44:22.173Z,14.00
2019-05-21T22:46:50.742Z,14.00
2019-05-21T22:49:18.613Z,14.00
2019-05-21T22:51:48.941Z,14.30
2019-05-21T22:54:16.798Z,14.10
2019-05-21T22:56:46.141Z,14.00
2019-05-21T22:59:14.071Z,14.30
2019-05-21T23:01:44.766Z,14.30
2019-05-21T23:04:13.627Z,14.00
2019-05-21T23:06:41.354Z,14.10
2019-05-21T23:09:09.818Z,14.00
2019-05-21T23:11:38.954Z,14.20
2019-05-21T23:14:07.097Z,14.10
2019-05-21T23:16:35.241Z,14.40
2019-05-21T23:19:04.413Z,14.10
2019-05-21T23:21:34.584Z,14.10
2019-05-21T23:24:03.049Z,14.40
2019-05-21T23:26:31.757Z,14.10
2019-05-21T23:29:00.932Z,14.30
2019-05-21T23:31:29.460Z,14.20
2019-05-21T23:33:58.289Z,13.90
2019-05-21T23:36:26.612Z,13.90
2019-05-21T23:38:55.507Z,13.70
2019-05-21T23:41:23.619Z,13.60
2019-05-21T23:43:52.268Z,14.20
2019-05-21T23:46:20.304Z,13.90
2019-05-21T23:48:48.264Z,13.90
2019-05-21T23:51:16.489Z,14.30
2019-05-21T23:53:44.352Z,13.90
2019-05-21T23:56:12.295Z,13.90
2019-05-21T23:58:40.492Z,13.90
